sensor_id;sensor_type;location;lat;lon;timestamp;temperature;humidity
18950;DHT22;9608;49.288;8.130;2022-09-03T00:01:37;19.60;99.90
18950;DHT22;9608;49.288;8.130;2022-09-03T00:04:11;19.40;99.90
18950;DHT22;9608;49.288;8.130;2022-09-03T00:06:47;19.40;99.90
18950;DHT22;9608;49.288;8.130;2022-09-03T00:09:18;19.40;99.90
18950;DHT22;9608;49.288;8.130;2022-09-03T00:11:51;19.60;99.90
18950;DHT22;9608;49.288;8.130;2022-09-03T00:14:22;19.50;99.90
18950;DHT22;9608;49.288;8.130;2022-09-03T00:16:55;19.40;99.90
18950;DHT22;9608;49.288;8.130;2022-09-03T00:19:25;19.50;99.90
18950;DHT22;9608;49.288;8.130;2022-09-03T00:21:56;19.50;99.90
18950;DHT22;9608;49.288;8.130;2022-09-03T00:24:29;19.40;99.90
18950;DHT22;9608;49.288;8.130;2022-09-03T00:27:00;19.50;99.90
18950;DHT22;9608;49.288;8.130;2022-09-03T00:29:34;19.40;99.90
18950;DHT22;9608;49.288;8.130;2022-09-03T00:32:08;19.20;99.90
18950;DHT22;9608;49.288;8.130;2022-09-03T00:34:39;19.20;99.90
18950;DHT22;9608;49.288;8.130;2022-09-03T00:37:08;19.10;99.90
18950;DHT22;9608;49.288;8.130;2022-09-03T00:39:36;19.20;99.90
18950;DHT22;9608;49.288;8.130;2022-09-03T00:42:18;19.20;99.90
18950;DHT22;9608;49.288;8.130;2022-09-03T00:44:59;19.20;99.90
18950;DHT22;9608;49.288;8.130;2022-09-03T00:47:38;19.30;99.90
18950;DHT22;9608;49.288;8.130;2022-09-03T00:50:14;19.40;99.90
18950;DHT22;9608;49.288;8.130;2022-09-03T00:52:50;19.20;99.90
18950;DHT22;9608;49.288;8.130;2022-09-03T00:55:26;19.00;99.90
18950;DHT22;9608;49.288;8.130;2022-09-03T01:01:14;18.80;99.90
18950;DHT22;9608;49.288;8.130;2022-09-03T01:03:51;18.80;99.90
18950;DHT22;9608;49.288;8.130;2022-09-03T01:06:26;18.70;99.90
18950;DHT22;9608;49.288;8.130;2022-09-03T01:09:02;18.70;99.90
18950;DHT22;9608;49.288;8.130;2022-09-03T01:11:41;18.70;99.90
18950;DHT22;9608;49.288;8.130;2022-09-03T01:14:13;18.80;99.90
18950;DHT22;9608;49.288;8.130;2022-09-03T01:16:49;19.00;99.90
18950;DHT22;9608;49.288;8.130;2022-09-03T01:19:46;19.00;99.90
18950;DHT22;9608;49.288;8.130;2022-09-03T01:22:35;18.90;99.90
18950;DHT22;9608;49.288;8.130;2022-09-03T01:25:17;19.00;99.90
18950;DHT22;9608;49.288;8.130;2022-09-03T01:28:06;19.00;99.90
18950;DHT22;9608;49.288;8.130;2022-09-03T01:30:41;19.10;99.90
18950;DHT22;9608;49.288;8.130;2022-09-03T01:33:16;19.00;99.90
18950;DHT22;9608;49.288;8.130;2022-09-03T01:35:46;18.90;99.90
18950;DHT22;9608;49.288;8.130;2022-09-03T01:38:21;18.90;99.90
18950;DHT22;9608;49.288;8.130;2022-09-03T01:41:00;18.80;99.90
18950;DHT22;9608;49.288;8.130;2022-09-03T01:43:56;18.70;99.90
18950;DHT22;9608;49.288;8.130;2022-09-03T01:46:32;18.60;99.90
18950;DHT22;9608;49.288;8.130;2022-09-03T01:49:09;18.60;99.90
18950;DHT22;9608;49.288;8.130;2022-09-03T01:51:38;18.60;99.90
18950;DHT22;9608;49.288;8.130;2022-09-03T01:57:26;18.50;99.90
18950;DHT22;9608;49.288;8.130;2022-09-03T02:00:03;18.40;99.90
18950;DHT22;9608;49.288;8.130;2022-09-03T02:02:31;18.20;99.90
18950;DHT22;9608;49.288;8.130;2022-09-03T02:05:02;18.00;99.90
18950;DHT22;9608;49.288;8.130;2022-09-03T02:07:33;17.90;99.90
18950;DHT22;9608;49.288;8.130;2022-09-03T02:10:01;17.90;99.90
18950;DHT22;9608;49.288;8.130;2022-09-03T02:12:29;17.90;99.90
18950;DHT22;9608;49.288;8.130;2022-09-03T02:14:57;17.90;99.90
18950;DHT22;9608;49.288;8.130;2022-09-03T02:17:25;17.90;99.90
18950;DHT22;9608;49.288;8.130;2022-09-03T02:19:53;17.90;99.90
18950;DHT22;9608;49.288;8.130;2022-09-03T02:22:20;17.90;99.90
18950;DHT22;9608;49.288;8.130;2022-09-03T02:24:47;17.90;99.90
18950;DHT22;9608;49.288;8.130;2022-09-03T02:27:14;17.90;99.90
18950;DHT22;9608;49.288;8.130;2022-09-03T02:29:41;18.00;99.90
18950;DHT22;9608;49.288;8.130;2022-09-03T02:32:08;18.00;99.90
18950;DHT22;9608;49.288;8.130;2022-09-03T02:34:36;17.90;99.90
18950;DHT22;9608;49.288;8.130;2022-09-03T02:37:12;17.90;99.90
18950;DHT22;9608;49.288;8.130;2022-09-03T02:39:39;17.80;99.90
18950;DHT22;9608;49.288;8.130;2022-09-03T02:42:06;17.80;99.90
18950;DHT22;9608;49.288;8.130;2022-09-03T02:44:37;17.80;99.90
18950;DHT22;9608;49.288;8.130;2022-09-03T02:47:07;17.80;99.90
18950;DHT22;9608;49.288;8.130;2022-09-03T02:49:35;17.80;99.90
18950;DHT22;9608;49.288;8.130;2022-09-03T02:52:05;17.80;99.90
18950;DHT22;9608;49.288;8.130;2022-09-03T02:54:34;17.80;99.90
18950;DHT22;9608;49.288;8.130;2022-09-03T02:57:04;17.80;99.90
18950;DHT22;9608;49.288;8.130;2022-09-03T02:59:31;17.80;99.90
18950;DHT22;9608;49.288;8.130;2022-09-03T03:01:58;17.90;99.90
18950;DHT22;9608;49.288;8.130;2022-09-03T03:04:25;17.90;99.90
18950;DHT22;9608;49.288;8.130;2022-09-03T03:06:53;17.90;99.90
18950;DHT22;9608;49.288;8.130;2022-09-03T03:09:20;18.00;99.90
18950;DHT22;9608;49.288;8.130;2022-09-03T03:11:47;17.90;99.90
18950;DHT22;9608;49.288;8.130;2022-09-03T03:14:15;17.90;99.90
18950;DHT22;9608;49.288;8.130;2022-09-03T03:16:43;17.90;99.90
18950;DHT22;9608;49.288;8.130;2022-09-03T03:19:10;17.90;99.90
18950;DHT22;9608;49.288;8.130;2022-09-03T03:21:37;17.90;99.90
18950;DHT22;9608;49.288;8.130;2022-09-03T03:24:05;17.90;99.90
18950;DHT22;9608;49.288;8.130;2022-09-03T03:26:32;17.90;99.90
18950;DHT22;9608;49.288;8.130;2022-09-03T03:29:01;17.90;99.90
18950;DHT22;9608;49.288;8.130;2022-09-03T03:31:29;17.90;99.90
18950;DHT22;9608;49.288;8.130;2022-09-03T03:33:58;18.00;99.90
18950;DHT22;9608;49.288;8.130;2022-09-03T03:36:26;18.00;99.90
18950;DHT22;9608;49.288;8.130;2022-09-03T03:38:54;17.80;99.90
18950;DHT22;9608;49.288;8.130;2022-09-03T03:41:24;17.80;99.90
18950;DHT22;9608;49.288;8.130;2022-09-03T03:43:52;17.90;99.90
18950;DHT22;9608;49.288;8.130;2022-09-03T03:46:20;17.90;99.90
18950;DHT22;9608;49.288;8.130;2022-09-03T03:48:48;18.00;99.90
18950;DHT22;9608;49.288;8.130;2022-09-03T03:51:14;18.00;99.90
18950;DHT22;9608;49.288;8.130;2022-09-03T03:53:41;18.00;99.90
18950;DHT22;9608;49.288;8.130;2022-09-03T03:56:10;17.90;99.90
18950;DHT22;9608;49.288;8.130;2022-09-03T03:58:39;18.00;99.90
18950;DHT22;9608;49.288;8.130;2022-09-03T04:01:08;17.90;99.90
18950;DHT22;9608;49.288;8.130;2022-09-03T04:03:36;17.60;99.90
18950;DHT22;9608;49.288;8.130;2022-09-03T04:06:03;17.60;99.90
18950;DHT22;9608;49.288;8.130;2022-09-03T04:08:33;17.50;99.90
18950;DHT22;9608;49.288;8.130;2022-09-03T04:11:01;17.50;99.90
18950;DHT22;9608;49.288;8.130;2022-09-03T04:13:28;17.50;99.90
18950;DHT22;9608;49.288;8.130;2022-09-03T04:16:01;17.50;99.90
18950;DHT22;9608;49.288;8.130;2022-09-03T04:18:28;17.60;99.90
18950;DHT22;9608;49.288;8.130;2022-09-03T04:20:59;17.50;99.90
18950;DHT22;9608;49.288;8.130;2022-09-03T04:23:29;17.60;99.90
18950;DHT22;9608;49.288;8.130;2022-09-03T04:25:56;17.60;99.90
18950;DHT22;9608;49.288;8.130;2022-09-03T04:28:23;17.60;99.90
18950;DHT22;9608;49.288;8.130;2022-09-03T04:30:49;17.70;99.90
18950;DHT22;9608;49.288;8.130;2022-09-03T04:33:18;17.70;99.90
18950;DHT22;9608;49.288;8.130;2022-09-03T04:35:45;17.70;99.90
18950;DHT22;9608;49.288;8.130;2022-09-03T04:38:12;17.70;99.90
18950;DHT22;9608;49.288;8.130;2022-09-03T04:40:39;17.80;99.90
18950;DHT22;9608;49.288;8.130;2022-09-03T04:43:06;17.80;99.90
18950;DHT22;9608;49.288;8.130;2022-09-03T04:45:33;17.80;99.90
18950;DHT22;9608;49.288;8.130;2022-09-03T04:48:00;17.80;99.90
18950;DHT22;9608;49.288;8.130;2022-09-03T04:50:30;17.80;99.90
18950;DHT22;9608;49.288;8.130;2022-09-03T04:53:00;17.70;99.90
18950;DHT22;9608;49.288;8.130;2022-09-03T04:55:27;17.70;99.90
18950;DHT22;9608;49.288;8.130;2022-09-03T04:57:54;17.80;99.90
18950;DHT22;9608;49.288;8.130;2022-09-03T05:00:21;17.80;99.90
18950;DHT22;9608;49.288;8.130;2022-09-03T05:02:47;17.80;99.90
18950;DHT22;9608;49.288;8.130;2022-09-03T05:05:16;17.90;99.90
18950;DHT22;9608;49.288;8.130;2022-09-03T05:07:45;17.90;99.90
18950;DHT22;9608;49.288;8.130;2022-09-03T05:10:12;17.70;99.90
18950;DHT22;9608;49.288;8.130;2022-09-03T05:12:45;17.60;99.90
18950;DHT22;9608;49.288;8.130;2022-09-03T05:15:12;17.50;99.90
18950;DHT22;9608;49.288;8.130;2022-09-03T05:17:39;17.40;99.90
18950;DHT22;9608;49.288;8.130;2022-09-03T05:20:06;17.40;99.90
18950;DHT22;9608;49.288;8.130;2022-09-03T05:22:33;17.40;99.90
18950;DHT22;9608;49.288;8.130;2022-09-03T05:25:02;17.40;99.90
18950;DHT22;9608;49.288;8.130;2022-09-03T05:27:30;17.50;99.90
18950;DHT22;9608;49.288;8.130;2022-09-03T05:29:57;17.60;99.90
18950;DHT22;9608;49.288;8.130;2022-09-03T05:32:23;17.70;99.90
18950;DHT22;9608;49.288;8.130;2022-09-03T05:34:52;17.70;99.90
18950;DHT22;9608;49.288;8.130;2022-09-03T05:37:19;17.70;99.90
18950;DHT22;9608;49.288;8.130;2022-09-03T05:39:46;17.70;99.90
18950;DHT22;9608;49.288;8.130;2022-09-03T05:42:14;17.50;99.90
18950;DHT22;9608;49.288;8.130;2022-09-03T05:44:40;17.30;99.90
18950;DHT22;9608;49.288;8.130;2022-09-03T05:47:08;17.10;99.90
18950;DHT22;9608;49.288;8.130;2022-09-03T05:49:35;16.80;99.90
18950;DHT22;9608;49.288;8.130;2022-09-03T05:52:02;16.60;99.90
18950;DHT22;9608;49.288;8.130;2022-09-03T05:54:28;16.40;99.90
18950;DHT22;9608;49.288;8.130;2022-09-03T05:56:55;16.50;99.90
18950;DHT22;9608;49.288;8.130;2022-09-03T05:59:23;16.40;99.90
18950;DHT22;9608;49.288;8.130;2022-09-03T06:01:50;16.40;99.90
18950;DHT22;9608;49.288;8.130;2022-09-03T06:04:17;16.30;99.90
18950;DHT22;9608;49.288;8.130;2022-09-03T06:06:45;16.20;99.90
18950;DHT22;9608;49.288;8.130;2022-09-03T06:09:13;16.10;99.90
18950;DHT22;9608;49.288;8.130;2022-09-03T06:11:41;16.00;99.90
18950;DHT22;9608;49.288;8.130;2022-09-03T06:14:11;16.00;99.90
18950;DHT22;9608;49.288;8.130;2022-09-03T06:16:41;15.90;99.90
18950;DHT22;9608;49.288;8.130;2022-09-03T06:19:08;15.70;99.90
18950;DHT22;9608;49.288;8.130;2022-09-03T06:21:36;15.60;99.90
18950;DHT22;9608;49.288;8.130;2022-09-03T06:24:04;15.40;99.90
18950;DHT22;9608;49.288;8.130;2022-09-03T06:26:31;15.30;99.90
18950;DHT22;9608;49.288;8.130;2022-09-03T06:28:58;15.30;99.90
18950;DHT22;9608;49.288;8.130;2022-09-03T06:31:25;15.20;99.90
18950;DHT22;9608;49.288;8.130;2022-09-03T06:33:53;15.20;99.90
18950;DHT22;9608;49.288;8.130;2022-09-03T06:36:22;15.30;99.90
18950;DHT22;9608;49.288;8.130;2022-09-03T06:38:51;15.40;99.90
18950;DHT22;9608;49.288;8.130;2022-09-03T06:41:19;15.40;99.90
18950;DHT22;9608;49.288;8.130;2022-09-03T06:43:50;15.50;99.90
18950;DHT22;9608;49.288;8.130;2022-09-03T06:46:19;15.60;99.90
18950;DHT22;9608;49.288;8.130;2022-09-03T06:48:46;15.50;99.90
18950;DHT22;9608;49.288;8.130;2022-09-03T06:51:18;15.50;99.90
18950;DHT22;9608;49.288;8.130;2022-09-03T06:53:46;15.60;99.90
18950;DHT22;9608;49.288;8.130;2022-09-03T06:56:15;15.60;99.90
18950;DHT22;9608;49.288;8.130;2022-09-03T06:58:44;15.70;99.90
18950;DHT22;9608;49.288;8.130;2022-09-03T07:01:15;15.70;99.90
18950;DHT22;9608;49.288;8.130;2022-09-03T07:03:43;15.70;99.90
18950;DHT22;9608;49.288;8.130;2022-09-03T07:06:12;15.80;99.90
18950;DHT22;9608;49.288;8.130;2022-09-03T07:08:40;15.80;99.90
18950;DHT22;9608;49.288;8.130;2022-09-03T07:11:09;15.70;99.90
18950;DHT22;9608;49.288;8.130;2022-09-03T07:13:37;15.70;99.90
18950;DHT22;9608;49.288;8.130;2022-09-03T07:16:06;15.80;99.90
18950;DHT22;9608;49.288;8.130;2022-09-03T07:18:34;15.90;99.90
18950;DHT22;9608;49.288;8.130;2022-09-03T07:21:02;15.90;99.90
18950;DHT22;9608;49.288;8.130;2022-09-03T07:23:30;15.90;99.90
18950;DHT22;9608;49.288;8.130;2022-09-03T07:26:00;15.90;99.90
18950;DHT22;9608;49.288;8.130;2022-09-03T07:28:28;15.80;99.90
18950;DHT22;9608;49.288;8.130;2022-09-03T07:31:02;15.70;99.90
18950;DHT22;9608;49.288;8.130;2022-09-03T07:33:30;15.50;99.90
18950;DHT22;9608;49.288;8.130;2022-09-03T07:36:01;15.50;99.90
18950;DHT22;9608;49.288;8.130;2022-09-03T07:38:28;15.40;99.90
18950;DHT22;9608;49.288;8.130;2022-09-03T07:40:57;15.30;99.90
18950;DHT22;9608;49.288;8.130;2022-09-03T07:43:26;15.40;99.90
18950;DHT22;9608;49.288;8.130;2022-09-03T07:45:53;15.40;99.90
18950;DHT22;9608;49.288;8.130;2022-09-03T07:48:22;15.30;99.90
18950;DHT22;9608;49.288;8.130;2022-09-03T07:50:50;15.30;99.90
18950;DHT22;9608;49.288;8.130;2022-09-03T07:53:18;15.30;99.90
18950;DHT22;9608;49.288;8.130;2022-09-03T07:55:46;15.30;99.90
18950;DHT22;9608;49.288;8.130;2022-09-03T07:58:14;15.30;99.90
18950;DHT22;9608;49.288;8.130;2022-09-03T08:00:43;15.30;99.90
18950;DHT22;9608;49.288;8.130;2022-09-03T08:03:10;15.30;99.90
18950;DHT22;9608;49.288;8.130;2022-09-03T08:05:37;15.30;99.90
18950;DHT22;9608;49.288;8.130;2022-09-03T08:08:04;15.40;99.90
18950;DHT22;9608;49.288;8.130;2022-09-03T08:10:33;15.50;99.90
18950;DHT22;9608;49.288;8.130;2022-09-03T08:13:00;15.60;99.90
18950;DHT22;9608;49.288;8.130;2022-09-03T08:15:30;15.80;99.90
18950;DHT22;9608;49.288;8.130;2022-09-03T08:17:58;16.10;99.90
18950;DHT22;9608;49.288;8.130;2022-09-03T08:20:25;16.20;99.90
18950;DHT22;9608;49.288;8.130;2022-09-03T08:22:58;16.40;99.90
18950;DHT22;9608;49.288;8.130;2022-09-03T08:25:25;16.70;99.90
18950;DHT22;9608;49.288;8.130;2022-09-03T08:27:52;16.90;99.90
18950;DHT22;9608;49.288;8.130;2022-09-03T08:30:19;17.00;99.90
18950;DHT22;9608;49.288;8.130;2022-09-03T08:32:46;17.10;99.90
18950;DHT22;9608;49.288;8.130;2022-09-03T08:35:14;17.10;99.90
18950;DHT22;9608;49.288;8.130;2022-09-03T08:37:41;17.10;99.90
18950;DHT22;9608;49.288;8.130;2022-09-03T08:40:08;17.20;99.90
18950;DHT22;9608;49.288;8.130;2022-09-03T08:42:43;17.40;99.90
18950;DHT22;9608;49.288;8.130;2022-09-03T08:45:16;17.50;99.90
18950;DHT22;9608;49.288;8.130;2022-09-03T08:47:45;17.50;99.90
18950;DHT22;9608;49.288;8.130;2022-09-03T08:50:22;17.70;99.90
18950;DHT22;9608;49.288;8.130;2022-09-03T08:52:51;17.90;99.90
18950;DHT22;9608;49.288;8.130;2022-09-03T08:55:25;18.10;99.90
18950;DHT22;9608;49.288;8.130;2022-09-03T08:57:58;18.30;99.90
18950;DHT22;9608;49.288;8.130;2022-09-03T09:00:38;18.40;99.90
18950;DHT22;9608;49.288;8.130;2022-09-03T09:03:26;18.50;99.90
18950;DHT22;9608;49.288;8.130;2022-09-03T09:06:06;18.80;99.90
18950;DHT22;9608;49.288;8.130;2022-09-03T09:08:40;19.20;99.90
18950;DHT22;9608;49.288;8.130;2022-09-03T09:11:19;19.50;99.90
18950;DHT22;9608;49.288;8.130;2022-09-03T09:13:57;19.80;99.90
18950;DHT22;9608;49.288;8.130;2022-09-03T09:16:30;20.10;99.90
18950;DHT22;9608;49.288;8.130;2022-09-03T09:19:08;20.40;99.90
18950;DHT22;9608;49.288;8.130;2022-09-03T09:21:40;20.70;99.90
18950;DHT22;9608;49.288;8.130;2022-09-03T09:24:18;20.80;99.90
18950;DHT22;9608;49.288;8.130;2022-09-03T09:26:48;21.00;99.90
18950;DHT22;9608;49.288;8.130;2022-09-03T09:29:15;21.10;99.90
18950;DHT22;9608;49.288;8.130;2022-09-03T09:31:42;21.20;99.90
18950;DHT22;9608;49.288;8.130;2022-09-03T09:34:10;21.10;99.90
18950;DHT22;9608;49.288;8.130;2022-09-03T09:36:43;21.00;99.90
18950;DHT22;9608;49.288;8.130;2022-09-03T09:39:11;20.70;99.90
18950;DHT22;9608;49.288;8.130;2022-09-03T09:41:40;20.50;99.90
18950;DHT22;9608;49.288;8.130;2022-09-03T09:44:07;20.30;99.90
18950;DHT22;9608;49.288;8.130;2022-09-03T09:46:36;20.20;99.90
18950;DHT22;9608;49.288;8.130;2022-09-03T09:49:17;19.90;99.90
18950;DHT22;9608;49.288;8.130;2022-09-03T09:52:03;19.90;99.90
18950;DHT22;9608;49.288;8.130;2022-09-03T09:54:30;19.90;99.90
18950;DHT22;9608;49.288;8.130;2022-09-03T09:56:59;20.00;99.90
18950;DHT22;9608;49.288;8.130;2022-09-03T09:59:26;20.10;99.90
18950;DHT22;9608;49.288;8.130;2022-09-03T10:02:03;20.30;99.90
18950;DHT22;9608;49.288;8.130;2022-09-03T10:04:32;20.50;99.90
18950;DHT22;9608;49.288;8.130;2022-09-03T10:07:04;20.80;99.90
18950;DHT22;9608;49.288;8.130;2022-09-03T10:09:33;21.00;99.90
18950;DHT22;9608;49.288;8.130;2022-09-03T10:12:08;21.10;99.90
18950;DHT22;9608;49.288;8.130;2022-09-03T10:14:43;21.30;99.90
18950;DHT22;9608;49.288;8.130;2022-09-03T10:17:17;21.50;99.90
18950;DHT22;9608;49.288;8.130;2022-09-03T10:19:51;21.70;99.90
18950;DHT22;9608;49.288;8.130;2022-09-03T10:22:44;21.70;99.90
18950;DHT22;9608;49.288;8.130;2022-09-03T10:25:14;21.70;99.90
18950;DHT22;9608;49.288;8.130;2022-09-03T10:27:41;21.90;99.90
18950;DHT22;9608;49.288;8.130;2022-09-03T10:30:09;22.00;99.90
18950;DHT22;9608;49.288;8.130;2022-09-03T10:32:42;21.90;99.90
18950;DHT22;9608;49.288;8.130;2022-09-03T10:35:20;22.00;99.90
18950;DHT22;9608;49.288;8.130;2022-09-03T10:37:53;22.10;99.90
18950;DHT22;9608;49.288;8.130;2022-09-03T10:40:27;22.00;99.90
18950;DHT22;9608;49.288;8.130;2022-09-03T10:43:20;22.20;99.90
18950;DHT22;9608;49.288;8.130;2022-09-03T10:45:56;22.30;99.90
18950;DHT22;9608;49.288;8.130;2022-09-03T10:51:37;22.40;99.90
18950;DHT22;9608;49.288;8.130;2022-09-03T10:54:26;22.70;99.90
18950;DHT22;9608;49.288;8.130;2022-09-03T10:57:02;23.10;99.90
18950;DHT22;9608;49.288;8.130;2022-09-03T10:59:41;23.50;99.90
18950;DHT22;9608;49.288;8.130;2022-09-03T11:02:23;23.30;99.90
18950;DHT22;9608;49.288;8.130;2022-09-03T11:04:59;23.40;99.90
18950;DHT22;9608;49.288;8.130;2022-09-03T11:07:34;23.80;99.90
18950;DHT22;9608;49.288;8.130;2022-09-03T11:10:11;23.90;99.90
18950;DHT22;9608;49.288;8.130;2022-09-03T11:12:43;24.30;99.90
18950;DHT22;9608;49.288;8.130;2022-09-03T11:15:17;24.70;99.90
18950;DHT22;9608;49.288;8.130;2022-09-03T11:17:48;25.00;99.90
18950;DHT22;9608;49.288;8.130;2022-09-03T11:20:19;25.00;99.90
18950;DHT22;9608;49.288;8.130;2022-09-03T11:22:48;24.70;99.90
18950;DHT22;9608;49.288;8.130;2022-09-03T11:25:20;24.60;99.90
18950;DHT22;9608;49.288;8.130;2022-09-03T11:27:56;24.40;99.90
18950;DHT22;9608;49.288;8.130;2022-09-03T11:30:33;24.30;99.90
18950;DHT22;9608;49.288;8.130;2022-09-03T11:33:07;24.50;99.90
18950;DHT22;9608;49.288;8.130;2022-09-03T11:35:38;24.60;99.90
18950;DHT22;9608;49.288;8.130;2022-09-03T11:38:19;24.90;99.90
18950;DHT22;9608;49.288;8.130;2022-09-03T11:40:59;25.30;99.90
18950;DHT22;9608;49.288;8.130;2022-09-03T11:43:28;25.30;99.90
18950;DHT22;9608;49.288;8.130;2022-09-03T11:46:05;25.00;99.90
18950;DHT22;9608;49.288;8.130;2022-09-03T11:48:38;24.90;99.90
18950;DHT22;9608;49.288;8.130;2022-09-03T11:51:18;24.90;99.90
18950;DHT22;9608;49.288;8.130;2022-09-03T11:53:53;24.90;99.90
18950;DHT22;9608;49.288;8.130;2022-09-03T11:56:22;24.70;99.90
18950;DHT22;9608;49.288;8.130;2022-09-03T11:59:14;24.60;99.90
18950;DHT22;9608;49.288;8.130;2022-09-03T12:01:45;24.50;99.90
18950;DHT22;9608;49.288;8.130;2022-09-03T12:04:14;24.30;99.90
18950;DHT22;9608;49.288;8.130;2022-09-03T12:06:54;24.30;99.90
18950;DHT22;9608;49.288;8.130;2022-09-03T12:12:50;24.20;99.90
18950;DHT22;9608;49.288;8.130;2022-09-03T12:15:32;24.50;99.90
18950;DHT22;9608;49.288;8.130;2022-09-03T12:18:03;24.70;99.90
18950;DHT22;9608;49.288;8.130;2022-09-03T12:20:47;25.10;99.90
18950;DHT22;9608;49.288;8.130;2022-09-03T12:23:27;25.30;99.90
18950;DHT22;9608;49.288;8.130;2022-09-03T12:26:04;25.00;99.90
18950;DHT22;9608;49.288;8.130;2022-09-03T12:28:36;25.30;99.90
18950;DHT22;9608;49.288;8.130;2022-09-03T12:31:08;25.50;99.90
18950;DHT22;9608;49.288;8.130;2022-09-03T12:33:44;25.60;99.90
18950;DHT22;9608;49.288;8.130;2022-09-03T12:36:13;25.50;99.90
18950;DHT22;9608;49.288;8.130;2022-09-03T12:38:40;25.80;99.90
18950;DHT22;9608;49.288;8.130;2022-09-03T12:41:22;25.70;99.90
18950;DHT22;9608;49.288;8.130;2022-09-03T12:43:53;25.10;99.90
18950;DHT22;9608;49.288;8.130;2022-09-03T12:46:25;24.90;99.90
18950;DHT22;9608;49.288;8.130;2022-09-03T12:48:56;24.90;99.90
18950;DHT22;9608;49.288;8.130;2022-09-03T12:51:39;24.50;99.90
18950;DHT22;9608;49.288;8.130;2022-09-03T12:54:08;24.40;99.90
18950;DHT22;9608;49.288;8.130;2022-09-03T12:56:40;24.00;99.90
18950;DHT22;9608;49.288;8.130;2022-09-03T12:59:12;24.10;99.90
18950;DHT22;9608;49.288;8.130;2022-09-03T13:01:44;24.20;99.90
18950;DHT22;9608;49.288;8.130;2022-09-03T13:04:14;24.20;99.90
18950;DHT22;9608;49.288;8.130;2022-09-03T13:06:47;23.80;99.90
18950;DHT22;9608;49.288;8.130;2022-09-03T13:09:19;23.80;99.90
18950;DHT22;9608;49.288;8.130;2022-09-03T13:11:47;23.90;99.90
18950;DHT22;9608;49.288;8.130;2022-09-03T13:14:18;24.10;99.90
18950;DHT22;9608;49.288;8.130;2022-09-03T13:17:13;24.10;99.90
18950;DHT22;9608;49.288;8.130;2022-09-03T13:19:56;24.30;99.90
18950;DHT22;9608;49.288;8.130;2022-09-03T13:22:33;24.50;99.90
18950;DHT22;9608;49.288;8.130;2022-09-03T13:25:12;24.80;99.90
18950;DHT22;9608;49.288;8.130;2022-09-03T13:27:44;25.10;99.90
18950;DHT22;9608;49.288;8.130;2022-09-03T13:30:15;25.10;99.90
18950;DHT22;9608;49.288;8.130;2022-09-03T13:32:51;25.10;99.90
18950;DHT22;9608;49.288;8.130;2022-09-03T13:35:27;25.20;99.90
18950;DHT22;9608;49.288;8.130;2022-09-03T13:38:02;25.50;99.90
18950;DHT22;9608;49.288;8.130;2022-09-03T13:40:35;25.70;99.90
18950;DHT22;9608;49.288;8.130;2022-09-03T13:43:08;25.50;99.90
18950;DHT22;9608;49.288;8.130;2022-09-03T13:45:50;25.20;99.90
18950;DHT22;9608;49.288;8.130;2022-09-03T13:48:21;25.50;99.90
18950;DHT22;9608;49.288;8.130;2022-09-03T13:51:14;25.80;99.90
18950;DHT22;9608;49.288;8.130;2022-09-03T13:53:48;26.20;99.90
18950;DHT22;9608;49.288;8.130;2022-09-03T13:56:29;26.40;99.90
18950;DHT22;9608;49.288;8.130;2022-09-03T13:59:04;26.30;99.90
18950;DHT22;9608;49.288;8.130;2022-09-03T14:01:44;26.00;99.90
18950;DHT22;9608;49.288;8.130;2022-09-03T14:04:21;25.60;99.90
18950;DHT22;9608;49.288;8.130;2022-09-03T14:06:57;25.50;99.90
18950;DHT22;9608;49.288;8.130;2022-09-03T14:09:32;25.30;99.90
18950;DHT22;9608;49.288;8.130;2022-09-03T14:12:04;24.90;99.90
18950;DHT22;9608;49.288;8.130;2022-09-03T14:14:43;24.80;99.90
18950;DHT22;9608;49.288;8.130;2022-09-03T14:17:18;24.50;99.90
18950;DHT22;9608;49.288;8.130;2022-09-03T14:19:54;24.10;99.90
18950;DHT22;9608;49.288;8.130;2022-09-03T14:22:24;23.90;99.90
18950;DHT22;9608;49.288;8.130;2022-09-03T14:24:55;23.50;99.90
18950;DHT22;9608;49.288;8.130;2022-09-03T14:27:25;23.30;99.90
18950;DHT22;9608;49.288;8.130;2022-09-03T14:29:57;22.90;99.90
18950;DHT22;9608;49.288;8.130;2022-09-03T14:32:34;22.40;99.90
18950;DHT22;9608;49.288;8.130;2022-09-03T14:35:27;22.10;99.90
18950;DHT22;9608;49.288;8.130;2022-09-03T14:41:03;21.20;99.90
18950;DHT22;9608;49.288;8.130;2022-09-03T14:46:39;20.20;99.90
18950;DHT22;9608;49.288;8.130;2022-09-03T14:49:17;19.80;99.90
18950;DHT22;9608;49.288;8.130;2022-09-03T14:51:57;19.80;99.90
18950;DHT22;9608;49.288;8.130;2022-09-03T14:54:49;19.50;99.90
18950;DHT22;9608;49.288;8.130;2022-09-03T14:57:38;19.60;99.90
18950;DHT22;9608;49.288;8.130;2022-09-03T15:00:12;19.80;99.90
18950;DHT22;9608;49.288;8.130;2022-09-03T15:03:06;19.90;99.90
18950;DHT22;9608;49.288;8.130;2022-09-03T15:05:48;19.90;99.90
18950;DHT22;9608;49.288;8.130;2022-09-03T15:08:27;19.90;99.90
18950;DHT22;9608;49.288;8.130;2022-09-03T15:10:59;19.70;99.90
18950;DHT22;9608;49.288;8.130;2022-09-03T15:13:30;19.60;99.90
18950;DHT22;9608;49.288;8.130;2022-09-03T15:16:07;19.60;99.90
18950;DHT22;9608;49.288;8.130;2022-09-03T15:18:48;19.70;99.90
18950;DHT22;9608;49.288;8.130;2022-09-03T15:21:24;19.70;99.90
18950;DHT22;9608;49.288;8.130;2022-09-03T15:24:03;19.80;99.90
18950;DHT22;9608;49.288;8.130;2022-09-03T15:26:51;19.80;99.90
18950;DHT22;9608;49.288;8.130;2022-09-03T15:29:36;19.70;99.90
18950;DHT22;9608;49.288;8.130;2022-09-03T15:32:14;19.60;99.90
18950;DHT22;9608;49.288;8.130;2022-09-03T15:34:57;19.60;99.90
18950;DHT22;9608;49.288;8.130;2022-09-03T15:37:31;19.60;99.90
18950;DHT22;9608;49.288;8.130;2022-09-03T15:40:04;19.60;99.90
18950;DHT22;9608;49.288;8.130;2022-09-03T15:42:31;19.60;99.90
18950;DHT22;9608;49.288;8.130;2022-09-03T15:45:05;19.70;99.90
18950;DHT22;9608;49.288;8.130;2022-09-03T15:47:51;19.70;99.90
18950;DHT22;9608;49.288;8.130;2022-09-03T15:50:31;19.70;99.90
18950;DHT22;9608;49.288;8.130;2022-09-03T15:53:03;19.50;99.90
18950;DHT22;9608;49.288;8.130;2022-09-03T15:55:34;19.40;99.90
18950;DHT22;9608;49.288;8.130;2022-09-03T15:58:10;19.50;99.90
18950;DHT22;9608;49.288;8.130;2022-09-03T16:00:55;19.60;99.90
18950;DHT22;9608;49.288;8.130;2022-09-03T16:03:34;19.70;99.90
18950;DHT22;9608;49.288;8.130;2022-09-03T16:06:19;19.80;99.90
18950;DHT22;9608;49.288;8.130;2022-09-03T16:08:53;20.00;99.90
18950;DHT22;9608;49.288;8.130;2022-09-03T16:11:31;20.20;99.90
18950;DHT22;9608;49.288;8.130;2022-09-03T16:14:05;20.40;99.90
18950;DHT22;9608;49.288;8.130;2022-09-03T16:16:51;20.60;99.90
18950;DHT22;9608;49.288;8.130;2022-09-03T16:19:25;20.90;99.90
18950;DHT22;9608;49.288;8.130;2022-09-03T16:21:57;21.10;99.90
18950;DHT22;9608;49.288;8.130;2022-09-03T16:24:32;21.30;99.90
18950;DHT22;9608;49.288;8.130;2022-09-03T16:27:08;21.50;99.90
18950;DHT22;9608;49.288;8.130;2022-09-03T16:29:35;21.60;99.90
18950;DHT22;9608;49.288;8.130;2022-09-03T16:32:19;21.50;99.90
18950;DHT22;9608;49.288;8.130;2022-09-03T16:35:01;21.60;99.90
18950;DHT22;9608;49.288;8.130;2022-09-03T16:37:34;21.50;99.90